sensor_id;sensor_type;location;lat;lon;timestamp;P1;durP1;ratioP1;P2;durP2;ratioP2
57155;SDS011;43023;59.928;10.682;2022-08-19T00:02:14;1.45;;;0.70;;
57155;SDS011;43023;59.928;10.682;2022-08-19T00:04:43;3.45;;;1.23;;
57155;SDS011;43023;59.928;10.682;2022-08-19T00:07:11;1.15;;;0.80;;
57155;SDS011;43023;59.928;10.682;2022-08-19T00:09:38;1.38;;;1.00;;
57155;SDS011;43023;59.928;10.682;2022-08-19T00:12:04;3.55;;;1.00;;
57155;SDS011;43023;59.928;10.682;2022-08-19T00:14:30;0.80;;;0.73;;
57155;SDS011;43023;59.928;10.682;2022-08-19T00:16:56;1.15;;;0.80;;
57155;SDS011;43023;59.928;10.682;2022-08-19T00:19:23;0.98;;;0.60;;
57155;SDS011;43023;59.928;10.682;2022-08-19T00:21:49;0.60;;;0.60;;
57155;SDS011;43023;59.928;10.682;2022-08-19T00:24:15;1.02;;;0.60;;
57155;SDS011;43023;59.928;10.682;2022-08-19T00:26:42;0.75;;;0.57;;
57155;SDS011;43023;59.928;10.682;2022-08-19T00:29:10;1.00;;;0.60;;
57155;SDS011;43023;59.928;10.682;2022-08-19T00:31:37;0.75;;;0.60;;
57155;SDS011;43023;59.928;10.682;2022-08-19T00:34:03;1.15;;;0.70;;
57155;SDS011;43023;59.928;10.682;2022-08-19T00:36:29;0.98;;;0.80;;
57155;SDS011;43023;59.928;10.682;2022-08-19T00:38:56;0.88;;;0.77;;
57155;SDS011;43023;59.928;10.682;2022-08-19T00:41:23;0.80;;;0.77;;
57155;SDS011;43023;59.928;10.682;2022-08-19T00:43:56;1.55;;;0.50;;
57155;SDS011;43023;59.928;10.682;2022-08-19T00:46:23;0.88;;;0.88;;
57155;SDS011;43023;59.928;10.682;2022-08-19T00:48:49;1.10;;;0.70;;
57155;SDS011;43023;59.928;10.682;2022-08-19T00:51:15;0.82;;;0.80;;
57155;SDS011;43023;59.928;10.682;2022-08-19T00:53:41;0.90;;;0.70;;
57155;SDS011;43023;59.928;10.682;2022-08-19T00:56:08;0.60;;;0.60;;
57155;SDS011;43023;59.928;10.682;2022-08-19T00:58:34;1.10;;;0.75;;
57155;SDS011;43023;59.928;10.682;2022-08-19T01:01:02;1.45;;;0.80;;
57155;SDS011;43023;59.928;10.682;2022-08-19T01:03:28;2.20;;;1.15;;
57155;SDS011;43023;59.928;10.682;2022-08-19T01:05:54;0.57;;;0.50;;
57155;SDS011;43023;59.928;10.682;2022-08-19T01:08:20;1.70;;;0.88;;
57155;SDS011;43023;59.928;10.682;2022-08-19T01:10:51;0.70;;;0.70;;
57155;SDS011;43023;59.928;10.682;2022-08-19T01:13:19;1.75;;;0.57;;
57155;SDS011;43023;59.928;10.682;2022-08-19T01:15:46;1.13;;;1.02;;
57155;SDS011;43023;59.928;10.682;2022-08-19T01:18:15;1.00;;;0.90;;
57155;SDS011;43023;59.928;10.682;2022-08-19T01:20:42;0.75;;;0.75;;
57155;SDS011;43023;59.928;10.682;2022-08-19T01:23:08;0.77;;;0.70;;
57155;SDS011;43023;59.928;10.682;2022-08-19T01:25:36;0.57;;;0.57;;
57155;SDS011;43023;59.928;10.682;2022-08-19T01:28:05;1.00;;;0.80;;
57155;SDS011;43023;59.928;10.682;2022-08-19T01:30:32;1.70;;;0.70;;
57155;SDS011;43023;59.928;10.682;2022-08-19T01:33:02;1.77;;;0.80;;
57155;SDS011;43023;59.928;10.682;2022-08-19T01:35:31;0.85;;;0.77;;
57155;SDS011;43023;59.928;10.682;2022-08-19T01:37:59;1.80;;;0.80;;
57155;SDS011;43023;59.928;10.682;2022-08-19T01:40:26;1.65;;;0.73;;
57155;SDS011;43023;59.928;10.682;2022-08-19T01:42:54;2.38;;;0.85;;
57155;SDS011;43023;59.928;10.682;2022-08-19T01:45:21;6.03;;;1.25;;
57155;SDS011;43023;59.928;10.682;2022-08-19T01:47:48;2.58;;;1.15;;
57155;SDS011;43023;59.928;10.682;2022-08-19T01:50:14;0.50;;;0.40;;
57155;SDS011;43023;59.928;10.682;2022-08-19T01:52:41;0.80;;;0.80;;
57155;SDS011;43023;59.928;10.682;2022-08-19T01:55:08;1.40;;;0.65;;
57155;SDS011;43023;59.928;10.682;2022-08-19T01:57:35;1.35;;;0.70;;
57155;SDS011;43023;59.928;10.682;2022-08-19T02:00:04;1.88;;;0.95;;
57155;SDS011;43023;59.928;10.682;2022-08-19T02:02:30;1.08;;;0.98;;
57155;SDS011;43023;59.928;10.682;2022-08-19T02:04:57;1.88;;;0.52;;
57155;SDS011;43023;59.928;10.682;2022-08-19T02:07:23;2.38;;;1.00;;
57155;SDS011;43023;59.928;10.682;2022-08-19T02:09:49;0.70;;;0.70;;
57155;SDS011;43023;59.928;10.682;2022-08-19T02:12:15;0.63;;;0.63;;
57155;SDS011;43023;59.928;10.682;2022-08-19T02:14:41;0.90;;;0.60;;
57155;SDS011;43023;59.928;10.682;2022-08-19T02:17:08;0.60;;;0.60;;
57155;SDS011;43023;59.928;10.682;2022-08-19T02:19:34;1.65;;;0.82;;
57155;SDS011;43023;59.928;10.682;2022-08-19T02:22:00;1.17;;;0.50;;
57155;SDS011;43023;59.928;10.682;2022-08-19T02:24:26;1.33;;;0.90;;
57155;SDS011;43023;59.928;10.682;2022-08-19T02:26:52;1.55;;;1.10;;
57155;SDS011;43023;59.928;10.682;2022-08-19T02:29:18;4.60;;;1.08;;
57155;SDS011;43023;59.928;10.682;2022-08-19T02:31:44;1.13;;;0.75;;
57155;SDS011;43023;59.928;10.682;2022-08-19T02:34:11;0.73;;;0.73;;
57155;SDS011;43023;59.928;10.682;2022-08-19T02:36:37;0.60;;;0.60;;
57155;SDS011;43023;59.928;10.682;2022-08-19T02:39:03;3.28;;;0.77;;
57155;SDS011;43023;59.928;10.682;2022-08-19T02:41:30;1.33;;;1.05;;
57155;SDS011;43023;59.928;10.682;2022-08-19T02:43:57;1.23;;;0.68;;
57155;SDS011;43023;59.928;10.682;2022-08-19T02:46:26;1.60;;;0.65;;
57155;SDS011;43023;59.928;10.682;2022-08-19T02:48:53;1.20;;;0.70;;
57155;SDS011;43023;59.928;10.682;2022-08-19T02:51:21;0.63;;;0.63;;
57155;SDS011;43023;59.928;10.682;2022-08-19T02:53:47;1.25;;;0.93;;
57155;SDS011;43023;59.928;10.682;2022-08-19T02:56:14;2.15;;;0.77;;
57155;SDS011;43023;59.928;10.682;2022-08-19T02:58:40;0.85;;;0.70;;
57155;SDS011;43023;59.928;10.682;2022-08-19T03:01:06;0.95;;;0.85;;
57155;SDS011;43023;59.928;10.682;2022-08-19T03:03:32;0.80;;;0.80;;
57155;SDS011;43023;59.928;10.682;2022-08-19T03:06:03;0.75;;;0.75;;
57155;SDS011;43023;59.928;10.682;2022-08-19T03:08:29;1.40;;;1.00;;
57155;SDS011;43023;59.928;10.682;2022-08-19T03:10:55;0.82;;;0.82;;
57155;SDS011;43023;59.928;10.682;2022-08-19T03:13:22;0.80;;;0.70;;
57155;SDS011;43023;59.928;10.682;2022-08-19T03:15:48;1.38;;;0.80;;
57155;SDS011;43023;59.928;10.682;2022-08-19T03:18:15;1.02;;;0.70;;
57155;SDS011;43023;59.928;10.682;2022-08-19T03:20:45;0.50;;;0.50;;
57155;SDS011;43023;59.928;10.682;2022-08-19T03:23:12;0.70;;;0.70;;
57155;SDS011;43023;59.928;10.682;2022-08-19T03:25:39;0.85;;;0.80;;
57155;SDS011;43023;59.928;10.682;2022-08-19T03:28:08;1.73;;;0.88;;
57155;SDS011;43023;59.928;10.682;2022-08-19T03:30:35;2.05;;;1.30;;
57155;SDS011;43023;59.928;10.682;2022-08-19T03:33:01;1.85;;;0.90;;
57155;SDS011;43023;59.928;10.682;2022-08-19T03:35:27;0.77;;;0.70;;
57155;SDS011;43023;59.928;10.682;2022-08-19T03:37:53;0.68;;;0.68;;
57155;SDS011;43023;59.928;10.682;2022-08-19T03:40:21;0.95;;;0.77;;
57155;SDS011;43023;59.928;10.682;2022-08-19T03:42:47;0.65;;;0.52;;
57155;SDS011;43023;59.928;10.682;2022-08-19T03:45:14;1.67;;;0.82;;
57155;SDS011;43023;59.928;10.682;2022-08-19T03:47:40;0.80;;;0.80;;
57155;SDS011;43023;59.928;10.682;2022-08-19T03:50:06;0.60;;;0.60;;
57155;SDS011;43023;59.928;10.682;2022-08-19T03:52:33;2.28;;;0.70;;
57155;SDS011;43023;59.928;10.682;2022-08-19T03:55:00;0.60;;;0.60;;
57155;SDS011;43023;59.928;10.682;2022-08-19T03:57:27;0.63;;;0.63;;
57155;SDS011;43023;59.928;10.682;2022-08-19T03:59:53;0.70;;;0.70;;
57155;SDS011;43023;59.928;10.682;2022-08-19T04:02:19;3.10;;;0.90;;
57155;SDS011;43023;59.928;10.682;2022-08-19T04:04:45;0.55;;;0.50;;
57155;SDS011;43023;59.928;10.682;2022-08-19T04:07:12;1.45;;;0.85;;
57155;SDS011;43023;59.928;10.682;2022-08-19T04:09:40;0.65;;;0.65;;
57155;SDS011;43023;59.928;10.682;2022-08-19T04:12:06;0.73;;;0.70;;
57155;SDS011;43023;59.928;10.682;2022-08-19T04:14:33;0.75;;;0.75;;
57155;SDS011;43023;59.928;10.682;2022-08-19T04:16:59;0.60;;;0.60;;
57155;SDS011;43023;59.928;10.682;2022-08-19T04:19:26;0.60;;;0.60;;
57155;SDS011;43023;59.928;10.682;2022-08-19T04:21:53;0.63;;;0.63;;
57155;SDS011;43023;59.928;10.682;2022-08-19T04:24:19;0.60;;;0.60;;
57155;SDS011;43023;59.928;10.682;2022-08-19T04:26:46;0.98;;;0.40;;
57155;SDS011;43023;59.928;10.682;2022-08-19T04:29:17;0.82;;;0.60;;
57155;SDS011;43023;59.928;10.682;2022-08-19T04:31:44;1.50;;;0.55;;
57155;SDS011;43023;59.928;10.682;2022-08-19T04:34:11;1.48;;;0.98;;
57155;SDS011;43023;59.928;10.682;2022-08-19T04:36:37;0.60;;;0.50;;
57155;SDS011;43023;59.928;10.682;2022-08-19T04:39:12;0.80;;;0.80;;
57155;SDS011;43023;59.928;10.682;2022-08-19T04:41:39;1.40;;;0.60;;
57155;SDS011;43023;59.928;10.682;2022-08-19T04:44:24;1.52;;;0.80;;
57155;SDS011;43023;59.928;10.682;2022-08-19T04:46:50;0.63;;;0.45;;
57155;SDS011;43023;59.928;10.682;2022-08-19T04:49:17;1.00;;;0.47;;
57155;SDS011;43023;59.928;10.682;2022-08-19T04:51:45;0.80;;;0.80;;
57155;SDS011;43023;59.928;10.682;2022-08-19T04:54:12;0.52;;;0.50;;
57155;SDS011;43023;59.928;10.682;2022-08-19T04:56:39;0.95;;;0.63;;
57155;SDS011;43023;59.928;10.682;2022-08-19T04:59:06;0.88;;;0.80;;
57155;SDS011;43023;59.928;10.682;2022-08-19T05:01:33;0.63;;;0.63;;
57155;SDS011;43023;59.928;10.682;2022-08-19T05:04:02;1.05;;;0.60;;
57155;SDS011;43023;59.928;10.682;2022-08-19T05:06:29;0.55;;;0.52;;
57155;SDS011;43023;59.928;10.682;2022-08-19T05:08:57;0.90;;;0.60;;
57155;SDS011;43023;59.928;10.682;2022-08-19T05:11:27;0.88;;;0.88;;
57155;SDS011;43023;59.928;10.682;2022-08-19T05:13:54;0.57;;;0.57;;
57155;SDS011;43023;59.928;10.682;2022-08-19T05:16:21;0.65;;;0.60;;
57155;SDS011;43023;59.928;10.682;2022-08-19T05:18:47;1.05;;;0.65;;
57155;SDS011;43023;59.928;10.682;2022-08-19T05:21:32;0.70;;;0.65;;
57155;SDS011;43023;59.928;10.682;2022-08-19T05:24:18;0.60;;;0.60;;
57155;SDS011;43023;59.928;10.682;2022-08-19T05:26:45;0.40;;;0.40;;
57155;SDS011;43023;59.928;10.682;2022-08-19T05:29:12;0.82;;;0.77;;
57155;SDS011;43023;59.928;10.682;2022-08-19T05:31:39;0.70;;;0.70;;
57155;SDS011;43023;59.928;10.682;2022-08-19T05:34:05;0.73;;;0.60;;
57155;SDS011;43023;59.928;10.682;2022-08-19T05:36:35;0.70;;;0.70;;
57155;SDS011;43023;59.928;10.682;2022-08-19T05:39:04;0.57;;;0.57;;
57155;SDS011;43023;59.928;10.682;2022-08-19T05:41:30;0.82;;;0.80;;
57155;SDS011;43023;59.928;10.682;2022-08-19T05:43:57;1.13;;;0.70;;
57155;SDS011;43023;59.928;10.682;2022-08-19T05:46:23;1.40;;;0.65;;
57155;SDS011;43023;59.928;10.682;2022-08-19T05:48:49;1.05;;;0.95;;
57155;SDS011;43023;59.928;10.682;2022-08-19T05:51:15;1.58;;;0.70;;
57155;SDS011;43023;59.928;10.682;2022-08-19T05:53:42;1.20;;;0.70;;
57155;SDS011;43023;59.928;10.682;2022-08-19T05:56:11;0.90;;;0.80;;
57155;SDS011;43023;59.928;10.682;2022-08-19T05:58:39;0.65;;;0.50;;
57155;SDS011;43023;59.928;10.682;2022-08-19T06:01:14;2.20;;;0.85;;
57155;SDS011;43023;59.928;10.682;2022-08-19T06:03:40;0.98;;;0.60;;
57155;SDS011;43023;59.928;10.682;2022-08-19T06:06:06;0.60;;;0.60;;
57155;SDS011;43023;59.928;10.682;2022-08-19T06:08:34;0.55;;;0.52;;
57155;SDS011;43023;59.928;10.682;2022-08-19T06:13:39;2.15;;;0.70;;
57155;SDS011;43023;59.928;10.682;2022-08-19T06:16:05;0.88;;;0.75;;
57155;SDS011;43023;59.928;10.682;2022-08-19T06:18:31;2.97;;;0.75;;
57155;SDS011;43023;59.928;10.682;2022-08-19T06:20:58;0.70;;;0.70;;
57155;SDS011;43023;59.928;10.682;2022-08-19T06:23:25;0.40;;;0.40;;
57155;SDS011;43023;59.928;10.682;2022-08-19T06:25:51;0.40;;;0.40;;
57155;SDS011;43023;59.928;10.682;2022-08-19T06:28:17;1.80;;;0.80;;
57155;SDS011;43023;59.928;10.682;2022-08-19T06:30:43;1.45;;;0.82;;
57155;SDS011;43023;59.928;10.682;2022-08-19T06:33:09;0.63;;;0.63;;
57155;SDS011;43023;59.928;10.682;2022-08-19T06:35:39;0.60;;;0.60;;
57155;SDS011;43023;59.928;10.682;2022-08-19T06:38:05;1.85;;;0.68;;
57155;SDS011;43023;59.928;10.682;2022-08-19T06:40:31;1.17;;;0.50;;
57155;SDS011;43023;59.928;10.682;2022-08-19T06:42:57;0.65;;;0.65;;
57155;SDS011;43023;59.928;10.682;2022-08-19T06:45:25;0.77;;;0.60;;
57155;SDS011;43023;59.928;10.682;2022-08-19T06:47:51;0.85;;;0.80;;
57155;SDS011;43023;59.928;10.682;2022-08-19T06:50:20;0.95;;;0.82;;
57155;SDS011;43023;59.928;10.682;2022-08-19T06:52:46;1.58;;;0.65;;
57155;SDS011;43023;59.928;10.682;2022-08-19T06:55:13;0.85;;;0.60;;
57155;SDS011;43023;59.928;10.682;2022-08-19T06:57:40;1.05;;;0.70;;
57155;SDS011;43023;59.928;10.682;2022-08-19T07:00:07;1.25;;;0.65;;
57155;SDS011;43023;59.928;10.682;2022-08-19T07:02:38;0.40;;;0.40;;
57155;SDS011;43023;59.928;10.682;2022-08-19T07:05:04;2.67;;;0.50;;
57155;SDS011;43023;59.928;10.682;2022-08-19T07:07:30;0.55;;;0.50;;
57155;SDS011;43023;59.928;10.682;2022-08-19T07:09:56;0.50;;;0.40;;
57155;SDS011;43023;59.928;10.682;2022-08-19T07:12:22;0.75;;;0.47;;
57155;SDS011;43023;59.928;10.682;2022-08-19T07:14:48;0.88;;;0.57;;
57155;SDS011;43023;59.928;10.682;2022-08-19T07:17:14;0.50;;;0.50;;
57155;SDS011;43023;59.928;10.682;2022-08-19T07:19:40;0.75;;;0.30;;
57155;SDS011;43023;59.928;10.682;2022-08-19T07:22:08;0.80;;;0.70;;
57155;SDS011;43023;59.928;10.682;2022-08-19T07:24:34;2.25;;;0.80;;
57155;SDS011;43023;59.928;10.682;2022-08-19T07:27:02;2.50;;;0.70;;
57155;SDS011;43023;59.928;10.682;2022-08-19T07:29:29;0.70;;;0.50;;
57155;SDS011;43023;59.928;10.682;2022-08-19T07:31:58;0.40;;;0.40;;
57155;SDS011;43023;59.928;10.682;2022-08-19T07:34:24;0.57;;;0.55;;
57155;SDS011;43023;59.928;10.682;2022-08-19T07:36:51;2.40;;;0.50;;
57155;SDS011;43023;59.928;10.682;2022-08-19T07:39:22;2.17;;;0.50;;
57155;SDS011;43023;59.928;10.682;2022-08-19T07:41:48;0.82;;;0.50;;
57155;SDS011;43023;59.928;10.682;2022-08-19T07:44:15;4.47;;;0.70;;
57155;SDS011;43023;59.928;10.682;2022-08-19T07:46:43;0.65;;;0.60;;
57155;SDS011;43023;59.928;10.682;2022-08-19T07:49:11;3.25;;;0.57;;
57155;SDS011;43023;59.928;10.682;2022-08-19T07:51:42;2.03;;;1.00;;
57155;SDS011;43023;59.928;10.682;2022-08-19T07:54:08;3.08;;;1.00;;
57155;SDS011;43023;59.928;10.682;2022-08-19T07:56:34;1.60;;;0.70;;
57155;SDS011;43023;59.928;10.682;2022-08-19T07:59:00;1.85;;;0.73;;
57155;SDS011;43023;59.928;10.682;2022-08-19T08:01:27;2.90;;;0.80;;
57155;SDS011;43023;59.928;10.682;2022-08-19T08:03:54;2.38;;;0.73;;
57155;SDS011;43023;59.928;10.682;2022-08-19T08:06:38;0.68;;;0.68;;
57155;SDS011;43023;59.928;10.682;2022-08-19T08:09:25;2.47;;;0.80;;
57155;SDS011;43023;59.928;10.682;2022-08-19T08:11:58;2.97;;;1.45;;
57155;SDS011;43023;59.928;10.682;2022-08-19T08:16:52;4.50;;;1.35;;
57155;SDS011;43023;59.928;10.682;2022-08-19T08:19:19;4.78;;;1.42;;
57155;SDS011;43023;59.928;10.682;2022-08-19T08:21:45;4.93;;;1.42;;
57155;SDS011;43023;59.928;10.682;2022-08-19T08:24:12;2.97;;;0.95;;
57155;SDS011;43023;59.928;10.682;2022-08-19T08:26:38;4.35;;;1.13;;
57155;SDS011;43023;59.928;10.682;2022-08-19T08:29:04;3.72;;;1.38;;
57155;SDS011;43023;59.928;10.682;2022-08-19T08:31:33;7.72;;;1.67;;
57155;SDS011;43023;59.928;10.682;2022-08-19T08:33:59;5.53;;;1.75;;
57155;SDS011;43023;59.928;10.682;2022-08-19T08:36:25;5.40;;;1.90;;
57155;SDS011;43023;59.928;10.682;2022-08-19T08:38:52;4.30;;;1.40;;
57155;SDS011;43023;59.928;10.682;2022-08-19T08:43:51;5.85;;;1.80;;
57155;SDS011;43023;59.928;10.682;2022-08-19T08:48:58;3.95;;;1.58;;
57155;SDS011;43023;59.928;10.682;2022-08-19T08:51:26;7.65;;;2.00;;
57155;SDS011;43023;59.928;10.682;2022-08-19T08:53:54;6.40;;;1.80;;
57155;SDS011;43023;59.928;10.682;2022-08-19T08:56:21;8.23;;;2.05;;
57155;SDS011;43023;59.928;10.682;2022-08-19T09:01:19;5.05;;;2.40;;
57155;SDS011;43023;59.928;10.682;2022-08-19T09:03:45;5.72;;;1.75;;
57155;SDS011;43023;59.928;10.682;2022-08-19T09:11:24;5.53;;;1.60;;
57155;SDS011;43023;59.928;10.682;2022-08-19T09:14:05;7.28;;;1.67;;
57155;SDS011;43023;59.928;10.682;2022-08-19T09:16:35;2.88;;;1.52;;
57155;SDS011;43023;59.928;10.682;2022-08-19T09:19:03;4.55;;;1.10;;
57155;SDS011;43023;59.928;10.682;2022-08-19T09:21:30;4.13;;;1.58;;
57155;SDS011;43023;59.928;10.682;2022-08-19T09:23:57;3.15;;;1.50;;
57155;SDS011;43023;59.928;10.682;2022-08-19T09:26:23;3.53;;;1.48;;
57155;SDS011;43023;59.928;10.682;2022-08-19T09:28:51;8.80;;;1.98;;
57155;SDS011;43023;59.928;10.682;2022-08-19T09:31:27;3.90;;;1.27;;
57155;SDS011;43023;59.928;10.682;2022-08-19T09:33:54;4.70;;;1.98;;
57155;SDS011;43023;59.928;10.682;2022-08-19T09:36:23;5.65;;;1.83;;
57155;SDS011;43023;59.928;10.682;2022-08-19T09:38:51;5.38;;;2.13;;
57155;SDS011;43023;59.928;10.682;2022-08-19T09:41:20;8.85;;;1.80;;
57155;SDS011;43023;59.928;10.682;2022-08-19T09:43:48;6.85;;;1.38;;
57155;SDS011;43023;59.928;10.682;2022-08-19T09:46:17;4.40;;;1.50;;
57155;SDS011;43023;59.928;10.682;2022-08-19T09:48:44;5.75;;;1.73;;
57155;SDS011;43023;59.928;10.682;2022-08-19T09:51:13;4.93;;;2.05;;
57155;SDS011;43023;59.928;10.682;2022-08-19T09:53:40;4.20;;;1.20;;
57155;SDS011;43023;59.928;10.682;2022-08-19T09:56:07;5.10;;;1.65;;
57155;SDS011;43023;59.928;10.682;2022-08-19T09:58:33;4.50;;;1.48;;
57155;SDS011;43023;59.928;10.682;2022-08-19T10:01:00;7.18;;;1.85;;
57155;SDS011;43023;59.928;10.682;2022-08-19T10:03:27;6.70;;;1.77;;
57155;SDS011;43023;59.928;10.682;2022-08-19T10:05:54;5.47;;;1.20;;
57155;SDS011;43023;59.928;10.682;2022-08-19T10:08:24;4.90;;;1.30;;
57155;SDS011;43023;59.928;10.682;2022-08-19T10:10:51;7.88;;;1.85;;
57155;SDS011;43023;59.928;10.682;2022-08-19T10:13:18;7.53;;;1.77;;
57155;SDS011;43023;59.928;10.682;2022-08-19T10:15:47;7.57;;;1.80;;
57155;SDS011;43023;59.928;10.682;2022-08-19T10:18:15;4.95;;;1.63;;
57155;SDS011;43023;59.928;10.682;2022-08-19T10:20:42;5.50;;;1.95;;
57155;SDS011;43023;59.928;10.682;2022-08-19T10:23:10;4.80;;;1.15;;
57155;SDS011;43023;59.928;10.682;2022-08-19T10:25:36;4.47;;;1.25;;
57155;SDS011;43023;59.928;10.682;2022-08-19T10:28:03;4.72;;;1.70;;
57155;SDS011;43023;59.928;10.682;2022-08-19T10:30:30;2.15;;;1.23;;
57155;SDS011;43023;59.928;10.682;2022-08-19T10:32:57;2.42;;;0.88;;
57155;SDS011;43023;59.928;10.682;2022-08-19T10:35:23;3.92;;;1.10;;
57155;SDS011;43023;59.928;10.682;2022-08-19T10:37:54;4.50;;;1.25;;
57155;SDS011;43023;59.928;10.682;2022-08-19T10:40:27;3.85;;;0.95;;
57155;SDS011;43023;59.928;10.682;2022-08-19T10:42:54;2.97;;;1.25;;
57155;SDS011;43023;59.928;10.682;2022-08-19T10:45:20;3.10;;;0.93;;
57155;SDS011;43023;59.928;10.682;2022-08-19T10:47:52;2.67;;;1.05;;
57155;SDS011;43023;59.928;10.682;2022-08-19T10:50:18;3.95;;;1.17;;
57155;SDS011;43023;59.928;10.682;2022-08-19T10:53:04;2.42;;;1.00;;
57155;SDS011;43023;59.928;10.682;2022-08-19T10:55:30;2.45;;;1.33;;
57155;SDS011;43023;59.928;10.682;2022-08-19T10:58:17;2.70;;;0.90;;
57155;SDS011;43023;59.928;10.682;2022-08-19T11:00:56;1.38;;;1.00;;
57155;SDS011;43023;59.928;10.682;2022-08-19T11:03:23;2.85;;;0.80;;
57155;SDS011;43023;59.928;10.682;2022-08-19T11:06:03;1.17;;;0.85;;
57155;SDS011;43023;59.928;10.682;2022-08-19T11:08:30;2.75;;;0.82;;
57155;SDS011;43023;59.928;10.682;2022-08-19T11:10:58;2.88;;;0.90;;
57155;SDS011;43023;59.928;10.682;2022-08-19T11:13:26;2.05;;;1.08;;
57155;SDS011;43023;59.928;10.682;2022-08-19T11:16:00;3.90;;;1.20;;
57155;SDS011;43023;59.928;10.682;2022-08-19T11:18:26;2.40;;;0.90;;
57155;SDS011;43023;59.928;10.682;2022-08-19T11:20:53;1.30;;;0.50;;
57155;SDS011;43023;59.928;10.682;2022-08-19T11:23:19;1.67;;;0.80;;
57155;SDS011;43023;59.928;10.682;2022-08-19T11:25:45;3.75;;;1.00;;
57155;SDS011;43023;59.928;10.682;2022-08-19T11:28:12;2.58;;;0.73;;
57155;SDS011;43023;59.928;10.682;2022-08-19T11:30:38;2.28;;;0.93;;
57155;SDS011;43023;59.928;10.682;2022-08-19T11:33:05;2.28;;;0.98;;
57155;SDS011;43023;59.928;10.682;2022-08-19T11:35:31;1.10;;;0.68;;
57155;SDS011;43023;59.928;10.682;2022-08-19T11:37:58;1.95;;;1.02;;
57155;SDS011;43023;59.928;10.682;2022-08-19T11:40:25;2.30;;;0.60;;
57155;SDS011;43023;59.928;10.682;2022-08-19T11:42:51;1.58;;;0.75;;
57155;SDS011;43023;59.928;10.682;2022-08-19T11:45:20;2.60;;;0.80;;
57155;SDS011;43023;59.928;10.682;2022-08-19T11:47:46;1.48;;;0.60;;
57155;SDS011;43023;59.928;10.682;2022-08-19T11:50:13;2.92;;;0.70;;
57155;SDS011;43023;59.928;10.682;2022-08-19T11:52:39;1.75;;;0.68;;
57155;SDS011;43023;59.928;10.682;2022-08-19T11:55:05;2.05;;;0.85;;
57155;SDS011;43023;59.928;10.682;2022-08-19T11:57:31;1.98;;;0.70;;
57155;SDS011;43023;59.928;10.682;2022-08-19T11:59:57;3.55;;;0.82;;
57155;SDS011;43023;59.928;10.682;2022-08-19T12:02:23;1.05;;;0.85;;
57155;SDS011;43023;59.928;10.682;2022-08-19T12:04:50;1.95;;;0.85;;
57155;SDS011;43023;59.928;10.682;2022-08-19T12:07:16;1.63;;;0.63;;
57155;SDS011;43023;59.928;10.682;2022-08-19T12:09:42;2.17;;;0.45;;
57155;SDS011;43023;59.928;10.682;2022-08-19T12:12:09;1.23;;;0.55;;
57155;SDS011;43023;59.928;10.682;2022-08-19T12:14:35;1.75;;;0.50;;
57155;SDS011;43023;59.928;10.682;2022-08-19T12:17:01;1.13;;;0.77;;
57155;SDS011;43023;59.928;10.682;2022-08-19T12:19:29;1.38;;;0.70;;
57155;SDS011;43023;59.928;10.682;2022-08-19T12:21:58;0.93;;;0.50;;
57155;SDS011;43023;59.928;10.682;2022-08-19T12:24:25;1.58;;;0.80;;
57155;SDS011;43023;59.928;10.682;2022-08-19T12:26:51;4.07;;;0.70;;
57155;SDS011;43023;59.928;10.682;2022-08-19T12:29:20;1.63;;;0.70;;
57155;SDS011;43023;59.928;10.682;2022-08-19T12:31:46;6.47;;;0.95;;
57155;SDS011;43023;59.928;10.682;2022-08-19T12:34:12;0.68;;;0.50;;
57155;SDS011;43023;59.928;10.682;2022-08-19T12:36:38;2.08;;;0.57;;
57155;SDS011;43023;59.928;10.682;2022-08-19T12:39:05;1.70;;;0.80;;
57155;SDS011;43023;59.928;10.682;2022-08-19T12:41:33;3.08;;;0.55;;
57155;SDS011;43023;59.928;10.682;2022-08-19T12:43:59;1.42;;;0.45;;
57155;SDS011;43023;59.928;10.682;2022-08-19T12:46:25;3.72;;;0.85;;
57155;SDS011;43023;59.928;10.682;2022-08-19T12:48:51;2.58;;;0.65;;
57155;SDS011;43023;59.928;10.682;2022-08-19T12:51:18;0.50;;;0.50;;
57155;SDS011;43023;59.928;10.682;2022-08-19T12:53:45;1.00;;;0.60;;
57155;SDS011;43023;59.928;10.682;2022-08-19T12:56:11;0.75;;;0.40;;
57155;SDS011;43023;59.928;10.682;2022-08-19T12:58:39;0.57;;;0.38;;
57155;SDS011;43023;59.928;10.682;2022-08-19T13:01:11;1.23;;;0.40;;
57155;SDS011;43023;59.928;10.682;2022-08-19T13:03:37;0.55;;;0.45;;
57155;SDS011;43023;59.928;10.682;2022-08-19T13:06:03;1.35;;;0.40;;
57155;SDS011;43023;59.928;10.682;2022-08-19T13:08:29;1.15;;;0.70;;
57155;SDS011;43023;59.928;10.682;2022-08-19T13:10:55;2.00;;;0.50;;
57155;SDS011;43023;59.928;10.682;2022-08-19T13:13:23;1.92;;;0.93;;
57155;SDS011;43023;59.928;10.682;2022-08-19T13:15:50;1.17;;;0.40;;
57155;SDS011;43023;59.928;10.682;2022-08-19T13:18:16;1.83;;;0.35;;
57155;SDS011;43023;59.928;10.682;2022-08-19T13:20:42;2.42;;;0.40;;
57155;SDS011;43023;59.928;10.682;2022-08-19T13:23:08;0.40;;;0.30;;
57155;SDS011;43023;59.928;10.682;2022-08-19T13:25:34;0.77;;;0.73;;
57155;SDS011;43023;59.928;10.682;2022-08-19T13:28:01;1.88;;;0.45;;
57155;SDS011;43023;59.928;10.682;2022-08-19T13:30:27;0.35;;;0.22;;
57155;SDS011;43023;59.928;10.682;2022-08-19T13:33:12;0.68;;;0.30;;
57155;SDS011;43023;59.928;10.682;2022-08-19T13:38:10;0.85;;;0.50;;
57155;SDS011;43023;59.928;10.682;2022-08-19T13:40:36;0.32;;;0.32;;
57155;SDS011;43023;59.928;10.682;2022-08-19T13:43:03;0.60;;;0.50;;
57155;SDS011;43023;59.928;10.682;2022-08-19T13:45:30;0.90;;;0.50;;
57155;SDS011;43023;59.928;10.682;2022-08-19T13:48:00;1.48;;;0.40;;
57155;SDS011;43023;59.928;10.682;2022-08-19T13:50:30;1.08;;;0.63;;
57155;SDS011;43023;59.928;10.682;2022-08-19T13:52:56;0.85;;;0.40;;
57155;SDS011;43023;59.928;10.682;2022-08-19T13:55:23;1.05;;;0.40;;
57155;SDS011;43023;59.928;10.682;2022-08-19T13:57:53;0.50;;;0.30;;
57155;SDS011;43023;59.928;10.682;2022-08-19T14:00:19;0.75;;;0.40;;
57155;SDS011;43023;59.928;10.682;2022-08-19T14:02:46;1.40;;;0.30;;
57155;SDS011;43023;59.928;10.682;2022-08-19T14:05:14;1.50;;;0.47;;
57155;SDS011;43023;59.928;10.682;2022-08-19T14:07:40;0.40;;;0.40;;
57155;SDS011;43023;59.928;10.682;2022-08-19T14:10:07;0.30;;;0.30;;
57155;SDS011;43023;59.928;10.682;2022-08-19T14:12:33;1.45;;;0.82;;
57155;SDS011;43023;59.928;10.682;2022-08-19T14:15:00;1.20;;;0.40;;
57155;SDS011;43023;59.928;10.682;2022-08-19T14:17:27;1.45;;;0.50;;
57155;SDS011;43023;59.928;10.682;2022-08-19T14:19:57;0.63;;;0.32;;
57155;SDS011;43023;59.928;10.682;2022-08-19T14:22:24;0.60;;;0.30;;
57155;SDS011;43023;59.928;10.682;2022-08-19T14:24:50;0.40;;;0.30;;
57155;SDS011;43023;59.928;10.682;2022-08-19T14:27:16;0.95;;;0.52;;
57155;SDS011;43023;59.928;10.682;2022-08-19T14:29:42;0.57;;;0.50;;
57155;SDS011;43023;59.928;10.682;2022-08-19T14:32:09;4.70;;;0.35;;
57155;SDS011;43023;59.928;10.682;2022-08-19T14:34:35;3.38;;;0.40;;
57155;SDS011;43023;59.928;10.682;2022-08-19T14:37:02;1.30;;;0.57;;
57155;SDS011;43023;59.928;10.682;2022-08-19T14:39:28;4.20;;;0.50;;
57155;SDS011;43023;59.928;10.682;2022-08-19T14:41:54;0.30;;;0.30;;
57155;SDS011;43023;59.928;10.682;2022-08-19T14:44:21;0.47;;;0.20;;
57155;SDS011;43023;59.928;10.682;2022-08-19T14:46:47;0.57;;;0.40;;
57155;SDS011;43023;59.928;10.682;2022-08-19T14:49:13;1.08;;;0.38;;
57155;SDS011;43023;59.928;10.682;2022-08-19T14:51:39;0.20;;;0.20;;
57155;SDS011;43023;59.928;10.682;2022-08-19T14:54:05;0.35;;;0.28;;
57155;SDS011;43023;59.928;10.682;2022-08-19T14:56:32;0.45;;;0.30;;